createdAt,value
2018-10-05T00:09:59.777Z,101314.15
2018-10-05T00:20:02.899Z,101304.70
2018-10-05T00:30:06.109Z,101297.39
2018-10-05T00:40:09.163Z,101297.80
2018-10-05T00:50:13.665Z,101290.03
2018-10-05T01:00:16.793Z,101272.47
2018-10-05T01:10:20.548Z,101270.33
2018-10-05T01:20:24.363Z,101264.45
2018-10-05T01:30:27.562Z,101272.30
2018-10-05T01:40:31.439Z,101259.89
2018-10-05T01:50:34.660Z,101251.77
2018-10-05T02:00:38.084Z,101239.74
2018-10-05T02:10:41.787Z,101232.34
2018-10-05T02:20:46.059Z,101231.53
2018-10-05T02:30:49.264Z,101224.16
2018-10-05T02:40:53.403Z,101214.09
2018-10-05T02:50:56.626Z,101208.92
2018-10-05T03:01:11.396Z,101196.29
2018-10-05T03:11:14.456Z,101202.94
2018-10-05T03:21:17.608Z,101205.63
2018-10-05T03:31:20.720Z,101195.59
2018-10-05T03:41:23.891Z,101192.95
2018-10-05T03:51:27.075Z,101187.30
2018-10-05T04:01:30.367Z,101190.04
2018-10-05T04:11:33.721Z,101184.88
2018-10-05T04:21:37.016Z,101192.01
2018-10-05T04:31:40.085Z,101183.23
2018-10-05T04:41:43.547Z,101186.03
2018-10-05T04:51:47.125Z,101186.03
2018-10-05T05:01:50.319Z,101180.88
2018-10-05T05:11:53.411Z,101192.28
2018-10-05T05:21:56.512Z,101185.36
2018-10-05T05:32:00.343Z,101193.66
2018-10-05T05:42:03.454Z,101188.16
2018-10-05T05:52:06.779Z,101189.31
2018-10-05T06:02:09.916Z,101198.23
2018-10-05T06:22:22.600Z,101198.89
2018-10-05T06:32:25.616Z,101205.49
2018-10-05T06:42:29.241Z,101199.67
2018-10-05T06:52:32.284Z,101207.86
2018-10-05T07:02:35.612Z,101209.09
2018-10-05T07:12:38.763Z,101219.86
2018-10-05T07:22:43.383Z,101208.20
2018-10-05T07:32:47.091Z,101212.19
2018-10-05T07:42:52.180Z,101206.67
2018-10-05T07:52:55.280Z,101207.88
2018-10-05T08:02:58.423Z,101208.66
2018-10-05T08:13:02.046Z,101207.45
2018-10-05T08:23:05.139Z,101200.45
2018-10-05T08:33:08.307Z,101188.27
2018-10-05T08:43:11.892Z,101177.16
2018-10-05T08:53:16.460Z,101160.72
2018-10-05T09:03:19.970Z,101148.14
2018-10-05T09:13:23.011Z,101147.75
2018-10-05T09:23:27.764Z,101118.61
2018-10-05T09:33:30.836Z,101096.81
2018-10-05T09:43:33.903Z,101089.39
2018-10-05T09:53:38.158Z,101074.46
2018-10-05T10:03:41.242Z,101053.16
2018-10-05T10:13:44.360Z,101038.84
2018-10-05T10:23:47.465Z,101007.23
2018-10-05T10:33:51.803Z,100995.31
2018-10-05T10:43:55.691Z,100983.80
2018-10-05T10:53:58.689Z,100968.04
2018-10-05T11:04:01.933Z,100956.14
2018-10-05T11:14:05.082Z,100938.08
2018-10-05T11:24:08.219Z,100920.80
2018-10-05T11:34:11.314Z,100907.13
2018-10-05T11:44:14.714Z,100888.61
2018-10-05T11:54:17.793Z,100870.31
2018-10-05T12:04:21.175Z,100860.77
2018-10-05T12:14:24.303Z,100856.04
2018-10-05T12:24:27.457Z,100843.84
2018-10-05T12:34:30.599Z,100843.44
2018-10-05T12:44:33.842Z,100829.59
2018-10-05T12:54:36.872Z,100813.51
2018-10-05T13:04:39.864Z,100808.55
2018-10-05T13:14:42.954Z,100787.62
2018-10-05T13:24:46.112Z,100774.68
2018-10-05T13:34:49.292Z,100754.00
2018-10-05T13:45:01.411Z,100765.63
2018-10-05T13:55:04.575Z,100759.23
2018-10-05T14:05:07.638Z,100749.02
2018-10-05T14:15:10.751Z,100747.40
2018-10-05T14:25:13.982Z,100740.95
2018-10-05T14:35:17.096Z,100737.12
2018-10-05T14:45:20.187Z,100724.80
2018-10-05T14:55:23.225Z,100731.70
2018-10-05T15:05:26.507Z,100723.11
2018-10-05T15:15:29.611Z,100715.50
2018-10-05T15:25:32.790Z,100707.45
2018-10-05T15:35:36.101Z,100696.31
2018-10-05T15:45:39.280Z,100688.05
2018-10-05T15:55:42.334Z,100680.25
2018-10-05T16:05:45.685Z,100684.19
2018-10-05T16:15:48.783Z,100668.89
2018-10-05T16:25:51.972Z,100656.75
2018-10-05T16:35:55.191Z,100656.69
2018-10-05T16:45:58.248Z,100645.49
2018-10-05T16:56:01.500Z,100655.13
2018-10-05T17:06:04.476Z,100646.52
2018-10-05T17:16:07.684Z,100651.95
2018-10-05T17:26:10.756Z,100647.57
2018-10-05T17:36:13.943Z,100639.83
2018-10-05T17:46:17.181Z,100633.03
2018-10-05T17:56:20.200Z,100617.44
2018-10-05T18:06:23.353Z,100606.37
2018-10-05T18:16:26.488Z,100615.99
2018-10-05T18:26:29.735Z,100608.45
2018-10-05T18:36:32.927Z,100600.50
2018-10-05T18:46:36.117Z,100601.37
2018-10-05T18:56:50.497Z,100586.35
2018-10-05T19:06:53.597Z,100584.97
2018-10-05T19:16:56.962Z,100578.05
2018-10-05T19:27:00.100Z,100566.83
2018-10-05T19:37:03.193Z,100555.80
2018-10-05T19:47:07.495Z,100543.89
2018-10-05T19:57:10.669Z,100531.97
2018-10-05T20:07:13.771Z,100518.00
2018-10-05T20:17:17.108Z,100499.50
2018-10-05T20:27:20.331Z,100504.61
2018-10-05T20:37:23.607Z,100484.45
2018-10-05T20:47:26.747Z,100483.82
2018-10-05T20:57:30.978Z,100482.93
2018-10-05T21:07:34.154Z,100483.77
2018-10-05T21:17:37.533Z,100473.89
2018-10-05T21:27:42.780Z,100468.21
2018-10-05T21:37:45.992Z,100460.08
2018-10-05T21:47:49.712Z,100458.45
2018-10-05T21:57:53.536Z,100442.58
2018-10-05T22:07:57.560Z,100438.88
2018-10-05T22:18:01.034Z,100418.42
2018-10-05T22:28:04.256Z,100415.31
2018-10-05T22:38:07.851Z,100418.59
2018-10-05T22:48:11.212Z,100405.38
2018-10-05T22:58:14.299Z,100406.48
2018-10-05T23:08:18.389Z,100399.67
2018-10-05T23:18:21.583Z,100404.78
2018-10-05T23:28:25.110Z,100397.98
2018-10-05T23:38:29.615Z,100401.13
2018-10-05T23:48:33.040Z,100390.59
2018-10-05T23:58:37.164Z,100387.59
